Time;durP1;ratioP1;P1;durP2;ratioP2;P2;SDS_P1;SDS_P2;PMS_P1;PMS_P2;Temp;Humidity;BMP_temperature;BMP_pressure;BME280_temperature;BME280_humidity;BME280_pressure;Samples;Min_cycle;Max_cycle;Signal;HPM_P1;HPM_P2
2024/03/20 00:02:05;;;;;;;;;;;9.30;99.90;;;;;;5022900;28;19924;-77
2024/03/20 00:04:32;;;;;;;;;;;9.30;99.90;;;;;;5020657;28;20324;-78
2024/03/20 00:06:57;;;;;;;;;;;9.30;99.90;;;;;;5017891;28;20620;-78
2024/03/20 00:09:23;;;;;;;;;;;9.30;99.90;;;;;;5057796;28;20325;-77
2024/03/20 00:11:49;;;;;;;;;;;9.20;99.90;;;;;;5025830;28;19917;-77
2024/03/20 00:14:14;;;;;;;;;;;9.30;99.90;;;;;;5035355;28;19959;-78
2024/03/20 00:16:43;;;;;;;;;;;9.20;99.90;;;;;;5071376;28;19913;-77
2024/03/20 00:19:09;;;;;;;;;;;9.20;99.90;;;;;;5068393;28;20004;-78
2024/03/20 00:21:34;;;;;;;;;;;9.20;99.90;;;;;;5052262;28;19952;-77
2024/03/20 00:24:00;;;;;;;;;;;9.20;99.90;;;;;;5051878;28;20300;-77
2024/03/20 00:26:26;;;;;;;;;;;9.20;99.90;;;;;;5026945;28;20007;-77
2024/03/20 00:28:52;;;;;;;;;;;9.20;99.90;;;;;;5038436;28;20024;-78
2024/03/20 00:31:18;;;;;;;;;;;9.20;99.90;;;;;;5061101;28;19979;-78
2024/03/20 00:33:43;;;;;;;;;;;9.20;99.90;;;;;;5036210;28;20014;-77
2024/03/20 00:36:09;;;;;;;;;;;9.20;99.90;;;;;;5035542;28;19925;-77
2024/03/20 00:38:34;;;;;;;;;;;9.10;99.90;;;;;;4997012;28;19914;-77
2024/03/20 00:41:03;;;;;;;;;;;9.10;99.90;;;;;;5031456;28;19914;-78
2024/03/20 00:43:29;;;;;;;;;;;9.00;99.90;;;;;;5052190;28;19956;-78
2024/03/20 00:45:55;;;;;;;;;;;9.00;99.90;;;;;;5045295;28;19987;-77
2024/03/20 00:48:20;;;;;;;;;;;9.00;99.90;;;;;;5074483;28;19921;-77
2024/03/20 00:50:46;;;;;;;;;;;9.00;99.90;;;;;;5018742;28;19917;-78
2024/03/20 00:53:11;;;;;;;;;;;8.90;99.90;;;;;;5036310;28;20414;-78
2024/03/20 00:55:37;;;;;;;;;;;8.90;99.90;;;;;;5038991;28;19920;-77
2024/03/20 00:58:03;;;;;;;;;;;8.90;99.90;;;;;;5048197;28;19928;-77
2024/03/20 01:00:29;;;;;;;;;;;8.90;99.90;;;;;;5048882;28;20346;-77
2024/03/20 01:02:55;;;;;;;;;;;8.90;99.90;;;;;;5033047;28;19918;-77
2024/03/20 01:05:21;;;;;;;;;;;8.80;99.90;;;;;;5025646;28;19912;-77
2024/03/20 01:07:49;;;;;;;;;;;8.90;99.90;;;;;;5056309;28;20201;-77
2024/03/20 01:10:14;;;;;;;;;;;8.80;99.90;;;;;;5044546;28;20227;-77
2024/03/20 01:12:40;;;;;;;;;;;8.80;99.90;;;;;;5072866;28;19936;-77
2024/03/20 01:15:06;;;;;;;;;;;8.80;99.90;;;;;;5080121;28;19916;-75
2024/03/20 01:17:33;;;;;;;;;;;8.80;99.90;;;;;;5019249;28;20648;-77
2024/03/20 01:20:00;;;;;;;;;;;8.80;99.90;;;;;;5033807;28;19913;-77
2024/03/20 01:22:26;;;;;;;;;;;8.80;99.90;;;;;;5017573;28;19970;-77
2024/03/20 01:24:51;;;;;;;;;;;8.80;99.90;;;;;;5069576;28;19913;-77
2024/03/20 01:27:17;;;;;;;;;;;8.70;99.90;;;;;;5036377;28;19920;-77
2024/03/20 01:29:42;;;;;;;;;;;8.80;99.90;;;;;;5016617;28;19917;-77
2024/03/20 01:32:08;;;;;;;;;;;8.80;99.90;;;;;;5047956;28;19913;-77
2024/03/20 01:34:34;;;;;;;;;;;8.80;99.90;;;;;;5069486;28;19944;-77
2024/03/20 01:36:59;;;;;;;;;;;8.80;99.90;;;;;;5034113;28;20010;-77
2024/03/20 01:39:25;;;;;;;;;;;8.90;99.90;;;;;;5032899;28;19917;-77
2024/03/20 01:41:50;;;;;;;;;;;8.90;99.90;;;;;;5016931;28;19918;-77
2024/03/20 01:44:17;;;;;;;;;;;8.90;99.90;;;;;;5039544;28;19921;-77
2024/03/20 01:46:42;;;;;;;;;;;9.00;99.90;;;;;;5035749;28;20000;-77
2024/03/20 01:49:08;;;;;;;;;;;9.00;99.90;;;;;;5020841;28;20055;-77
2024/03/20 01:51:34;;;;;;;;;;;9.00;99.90;;;;;;5054214;28;19960;-77
2024/03/20 01:54:01;;;;;;;;;;;8.90;99.90;;;;;;5053908;28;19947;-77
2024/03/20 01:56:27;;;;;;;;;;;8.90;99.90;;;;;;5051565;28;19913;-77
2024/03/20 01:58:53;;;;;;;;;;;8.80;99.90;;;;;;5015238;28;19917;-77
2024/03/20 02:01:19;;;;;;;;;;;8.80;99.90;;;;;;5034136;28;19979;-77
2024/03/20 02:03:45;;;;;;;;;;;8.80;99.90;;;;;;5020631;28;19920;-77
2024/03/20 02:06:21;;;;;;;;;;;8.70;99.90;;;;;;5033327;28;19928;-77
2024/03/20 02:08:48;;;;;;;;;;;8.80;99.90;;;;;;5073354;28;19979;-77
2024/03/20 02:11:14;;;;;;;;;;;8.60;99.90;;;;;;5017120;28;19917;-77
2024/03/20 02:13:49;;;;;;;;;;;8.60;99.90;;;;;;5036979;28;19973;-77
2024/03/20 02:16:15;;;;;;;;;;;8.70;99.90;;;;;;5027460;28;19923;-75
2024/03/20 02:18:41;;;;;;;;;;;8.70;99.90;;;;;;5023082;28;19913;-75
2024/03/20 02:21:08;;;;;;;;;;;8.80;99.90;;;;;;5020409;28;19921;-75
2024/03/20 02:23:34;;;;;;;;;;;8.80;99.90;;;;;;5035420;28;19979;-74
2024/03/20 02:25:59;;;;;;;;;;;8.80;99.90;;;;;;5015389;28;19917;-75
2024/03/20 02:28:25;;;;;;;;;;;8.80;99.90;;;;;;5031444;28;19917;-74
2024/03/20 02:30:51;;;;;;;;;;;8.80;99.90;;;;;;5025082;28;19913;-75
2024/03/20 02:33:16;;;;;;;;;;;8.80;99.90;;;;;;5036780;28;19917;-74
2024/03/20 02:35:42;;;;;;;;;;;8.80;99.90;;;;;;5042992;28;19912;-75
2024/03/20 02:38:07;;;;;;;;;;;8.70;99.90;;;;;;5040298;28;20334;-74
2024/03/20 02:40:33;;;;;;;;;;;8.60;99.90;;;;;;5039764;28;19913;-75
2024/03/20 02:42:59;;;;;;;;;;;8.60;99.90;;;;;;5046594;28;20357;-74
2024/03/20 02:45:25;;;;;;;;;;;8.60;99.90;;;;;;5013892;28;19957;-74
2024/03/20 02:47:50;;;;;;;;;;;8.60;99.90;;;;;;5052768;28;19913;-75
2024/03/20 02:50:17;;;;;;;;;;;8.60;99.90;;;;;;5019041;28;20309;-75
2024/03/20 02:52:43;;;;;;;;;;;8.60;99.90;;;;;;5018085;28;20684;-76
2024/03/20 02:55:09;;;;;;;;;;;8.60;99.90;;;;;;5040856;28;19912;-75
2024/03/20 02:57:34;;;;;;;;;;;8.60;99.90;;;;;;5063537;28;19917;-75
2024/03/20 03:00:00;;;;;;;;;;;8.50;99.90;;;;;;5042744;28;19932;-75
2024/03/20 03:02:25;;;;;;;;;;;8.40;99.90;;;;;;5034565;28;20031;-75
2024/03/20 03:04:51;;;;;;;;;;;8.40;99.90;;;;;;5036243;28;20455;-75
2024/03/20 03:07:18;;;;;;;;;;;8.40;99.90;;;;;;5001901;28;19913;-74
2024/03/20 03:09:43;;;;;;;;;;;8.40;99.90;;;;;;5056829;28;20365;-75
2024/03/20 03:12:09;;;;;;;;;;;8.40;99.90;;;;;;5073784;28;19917;-75
2024/03/20 03:14:34;;;;;;;;;;;8.30;99.90;;;;;;5002309;28;19913;-75
2024/03/20 03:17:00;;;;;;;;;;;8.30;99.90;;;;;;5034957;28;20063;-74
2024/03/20 03:19:26;;;;;;;;;;;8.30;99.90;;;;;;5040488;28;19964;-75
2024/03/20 03:21:51;;;;;;;;;;;8.30;99.90;;;;;;5038291;28;19917;-74
2024/03/20 03:24:17;;;;;;;;;;;8.20;99.90;;;;;;5034675;28;20360;-75
2024/03/20 03:26:43;;;;;;;;;;;8.20;99.90;;;;;;5035317;28;19916;-75
2024/03/20 03:29:09;;;;;;;;;;;8.20;99.90;;;;;;5039868;28;19913;-75
2024/03/20 03:31:36;;;;;;;;;;;8.20;99.90;;;;;;5065745;28;20338;-75
2024/03/20 03:34:02;;;;;;;;;;;8.20;99.90;;;;;;5021830;28;20007;-75
2024/03/20 03:36:28;;;;;;;;;;;8.20;99.90;;;;;;5034346;28;19913;-75
2024/03/20 03:38:54;;;;;;;;;;;8.30;99.90;;;;;;5051107;28;19913;-74
2024/03/20 03:41:20;;;;;;;;;;;8.20;99.90;;;;;;5038788;28;19936;-74
2024/03/20 03:43:46;;;;;;;;;;;8.20;99.90;;;;;;5050361;28;20577;-74
2024/03/20 03:46:12;;;;;;;;;;;8.20;99.90;;;;;;5035069;28;19967;-75
2024/03/20 03:48:37;;;;;;;;;;;8.20;99.90;;;;;;5043564;28;20322;-74
2024/03/20 03:51:03;;;;;;;;;;;8.20;99.90;;;;;;5047484;28;19921;-74
2024/03/20 03:53:29;;;;;;;;;;;8.20;99.90;;;;;;5036655;28;19964;-75
2024/03/20 03:55:55;;;;;;;;;;;8.20;99.90;;;;;;5069309;28;19913;-74
2024/03/20 03:58:21;;;;;;;;;;;8.30;99.90;;;;;;5035615;28;19917;-74
2024/03/20 04:00:46;;;;;;;;;;;8.30;99.90;;;;;;5050860;28;19925;-75
2024/03/20 04:03:12;;;;;;;;;;;8.30;99.90;;;;;;5020010;28;20032;-75
2024/03/20 04:05:38;;;;;;;;;;;8.40;99.90;;;;;;5072148;28;20067;-75
2024/03/20 04:08:03;;;;;;;;;;;8.40;99.90;;;;;;5054911;28;19917;-75
2024/03/20 04:10:30;;;;;;;;;;;8.40;99.90;;;;;;5032988;28;19921;-74
2024/03/20 04:12:56;;;;;;;;;;;8.40;99.90;;;;;;5017949;28;19921;-75
2024/03/20 04:15:22;;;;;;;;;;;8.40;99.90;;;;;;5036137;28;19913;-75
2024/03/20 04:17:47;;;;;;;;;;;8.40;99.90;;;;;;5022725;28;19913;-75
2024/03/20 04:20:13;;;;;;;;;;;8.40;99.90;;;;;;5076845;28;19916;-75
2024/03/20 04:22:39;;;;;;;;;;;8.40;99.90;;;;;;5017047;28;19917;-75
2024/03/20 04:25:05;;;;;;;;;;;8.40;99.90;;;;;;5017094;28;19953;-75
2024/03/20 04:27:31;;;;;;;;;;;8.40;99.90;;;;;;5060376;28;19917;-75
2024/03/20 04:29:56;;;;;;;;;;;8.30;99.90;;;;;;5018363;28;19921;-75
2024/03/20 04:32:22;;;;;;;;;;;8.30;99.90;;;;;;5015250;28;19966;-75
2024/03/20 04:34:47;;;;;;;;;;;8.30;99.90;;;;;;5000563;28;19921;-75
2024/03/20 04:37:13;;;;;;;;;;;8.30;99.90;;;;;;5033619;28;19917;-75
2024/03/20 04:39:39;;;;;;;;;;;8.30;99.90;;;;;;5050141;28;19913;-75
2024/03/20 04:42:05;;;;;;;;;;;8.30;99.90;;;;;;5031094;28;19933;-75
2024/03/20 04:44:30;;;;;;;;;;;8.20;99.90;;;;;;5017279;28;19931;-76
2024/03/20 04:46:56;;;;;;;;;;;8.20;99.90;;;;;;5050859;28;19925;-76
2024/03/20 04:49:22;;;;;;;;;;;8.20;99.90;;;;;;5057954;28;19978;-76
2024/03/20 04:51:47;;;;;;;;;;;8.20;99.90;;;;;;5070293;28;19967;-76
2024/03/20 04:54:14;;;;;;;;;;;8.20;99.90;;;;;;5035606;28;19913;-75
2024/03/20 04:56:40;;;;;;;;;;;8.20;99.90;;;;;;5041539;28;20203;-76
2024/03/20 04:59:06;;;;;;;;;;;8.10;99.90;;;;;;5046489;28;19970;-76
2024/03/20 05:01:32;;;;;;;;;;;8.10;99.90;;;;;;5034053;28;19948;-76
2024/03/20 05:03:58;;;;;;;;;;;8.10;99.90;;;;;;5019451;28;20643;-76
2024/03/20 05:06:24;;;;;;;;;;;8.10;99.90;;;;;;5034195;28;19913;-76
2024/03/20 05:08:50;;;;;;;;;;;8.10;99.90;;;;;;5039172;28;19924;-75
2024/03/20 05:11:15;;;;;;;;;;;8.10;99.90;;;;;;5040139;28;20522;-77
2024/03/20 05:13:41;;;;;;;;;;;8.00;99.90;;;;;;5048043;28;19948;-77
2024/03/20 05:16:08;;;;;;;;;;;8.00;99.90;;;;;;5058293;28;19917;-76
2024/03/20 05:18:33;;;;;;;;;;;8.00;99.90;;;;;;5058671;28;19913;-77
2024/03/20 05:20:59;;;;;;;;;;;8.00;99.90;;;;;;5029542;28;19976;-77
2024/03/20 05:23:25;;;;;;;;;;;8.00;99.90;;;;;;5025201;28;20355;-77
2024/03/20 05:25:54;;;;;;;;;;;8.00;99.90;;;;;;5042413;28;19980;-78
2024/03/20 05:28:20;;;;;;;;;;;7.90;99.90;;;;;;5060796;28;19924;-77
2024/03/20 05:30:45;;;;;;;;;;;7.90;99.90;;;;;;5046529;28;20003;-77
2024/03/20 05:33:11;;;;;;;;;;;7.90;99.90;;;;;;5042173;28;19976;-77
2024/03/20 05:35:38;;;;;;;;;;;7.90;99.90;;;;;;5017659;28;19922;-77
2024/03/20 05:38:03;;;;;;;;;;;7.90;99.90;;;;;;5050545;28;19959;-77
2024/03/20 05:40:29;;;;;;;;;;;7.90;99.90;;;;;;5053537;28;19948;-77
2024/03/20 05:42:56;;;;;;;;;;;7.90;99.90;;;;;;5037410;28;19925;-77
2024/03/20 05:45:22;;;;;;;;;;;7.90;99.90;;;;;;5042697;28;19913;-77
2024/03/20 05:47:48;;;;;;;;;;;7.90;99.90;;;;;;5024192;28;19913;-75
2024/03/20 05:50:14;;;;;;;;;;;7.90;99.90;;;;;;5078238;28;19921;-77
2024/03/20 05:52:39;;;;;;;;;;;7.90;99.90;;;;;;5055772;28;19996;-77
2024/03/20 05:55:05;;;;;;;;;;;7.80;99.90;;;;;;5065311;28;19913;-77
2024/03/20 05:57:30;;;;;;;;;;;7.80;99.90;;;;;;5007587;28;19921;-77
2024/03/20 05:59:56;;;;;;;;;;;7.80;99.90;;;;;;5077878;28;19936;-77
2024/03/20 06:02:22;;;;;;;;;;;7.80;99.90;;;;;;5026561;28;20483;-77
2024/03/20 06:04:48;;;;;;;;;;;7.80;99.90;;;;;;5050892;28;19952;-77
2024/03/20 06:07:13;;;;;;;;;;;7.80;99.90;;;;;;5055611;28;19913;-77
2024/03/20 06:09:39;;;;;;;;;;;7.80;99.90;;;;;;5041091;28;19917;-77
2024/03/20 06:12:05;;;;;;;;;;;7.80;99.90;;;;;;5058013;28;20334;-77
2024/03/20 06:14:31;;;;;;;;;;;7.80;99.90;;;;;;5063988;28;19913;-77
2024/03/20 06:16:57;;;;;;;;;;;7.80;99.90;;;;;;5050814;28;19956;-77
2024/03/20 06:19:23;;;;;;;;;;;7.80;99.90;;;;;;5036974;28;19917;-77
2024/03/20 06:21:49;;;;;;;;;;;7.90;99.90;;;;;;5047300;28;19913;-77
2024/03/20 06:24:14;;;;;;;;;;;7.90;99.90;;;;;;5033138;28;19925;-77
2024/03/20 06:26:40;;;;;;;;;;;8.00;99.90;;;;;;5027564;28;20027;-77
2024/03/20 06:29:06;;;;;;;;;;;8.00;99.90;;;;;;5046857;28;19971;-77
2024/03/20 06:31:32;;;;;;;;;;;8.10;99.90;;;;;;5007794;28;19985;-77
2024/03/20 06:33:58;;;;;;;;;;;8.20;99.90;;;;;;5036589;28;19917;-77
2024/03/20 06:36:24;;;;;;;;;;;8.20;99.90;;;;;;5052863;28;19919;-76
2024/03/20 06:38:50;;;;;;;;;;;8.20;99.90;;;;;;5031758;28;20249;-77
2024/03/20 06:41:17;;;;;;;;;;;8.30;99.90;;;;;;5073187;28;20488;-77
2024/03/20 06:43:44;;;;;;;;;;;8.40;99.90;;;;;;5053367;28;20612;-77
2024/03/20 06:46:09;;;;;;;;;;;8.40;99.90;;;;;;5050279;28;19917;-77
2024/03/20 06:48:36;;;;;;;;;;;8.40;99.90;;;;;;5053801;28;20237;-78
2024/03/20 06:51:03;;;;;;;;;;;8.50;99.90;;;;;;5037231;28;20242;-78
2024/03/20 06:53:28;;;;;;;;;;;8.50;99.90;;;;;;5005783;28;20147;-77
2024/03/20 06:55:55;;;;;;;;;;;8.60;99.90;;;;;;5033319;28;20044;-78
2024/03/20 06:58:21;;;;;;;;;;;8.60;99.90;;;;;;5053484;28;19912;-78
2024/03/20 07:00:47;;;;;;;;;;;8.70;99.90;;;;;;5076954;28;19960;-77
2024/03/20 07:03:14;;;;;;;;;;;8.80;99.90;;;;;;5045212;28;19917;-78
2024/03/20 07:05:40;;;;;;;;;;;8.80;99.90;;;;;;5042078;28;19968;-77
2024/03/20 07:08:09;;;;;;;;;;;8.90;99.90;;;;;;5025890;28;19913;-77
2024/03/20 07:10:38;;;;;;;;;;;8.90;99.90;;;;;;5039305;28;19932;-77
2024/03/20 07:13:04;;;;;;;;;;;9.00;99.90;;;;;;5036329;28;19979;-77
2024/03/20 07:15:30;;;;;;;;;;;9.00;99.90;;;;;;5028591;28;20315;-77
2024/03/20 07:17:56;;;;;;;;;;;9.00;99.90;;;;;;5062813;28;19913;-77
2024/03/20 07:20:21;;;;;;;;;;;9.10;99.90;;;;;;5024348;28;19970;-77
2024/03/20 07:22:47;;;;;;;;;;;9.10;99.90;;;;;;5036960;28;19923;-77
2024/03/20 07:25:12;;;;;;;;;;;9.20;99.90;;;;;;5026180;28;19918;-77
2024/03/20 07:27:38;;;;;;;;;;;9.20;99.90;;;;;;5020511;28;19928;-77
2024/03/20 07:30:04;;;;;;;;;;;9.20;99.90;;;;;;5030839;28;19927;-77
2024/03/20 07:32:31;;;;;;;;;;;9.30;99.90;;;;;;5004193;28;19944;-78
2024/03/20 07:34:57;;;;;;;;;;;9.40;99.90;;;;;;5054443;28;19917;-77
2024/03/20 07:37:23;;;;;;;;;;;9.40;99.90;;;;;;5038543;28;19959;-78
2024/03/20 07:39:48;;;;;;;;;;;9.50;99.90;;;;;;5021642;28;19914;-77
2024/03/20 07:42:14;;;;;;;;;;;9.50;99.90;;;;;;5046285;28;19931;-77
2024/03/20 07:44:40;;;;;;;;;;;9.60;99.90;;;;;;5022732;28;19917;-77
2024/03/20 07:47:05;;;;;;;;;;;9.60;99.90;;;;;;5022197;28;19924;-76
2024/03/20 07:49:31;;;;;;;;;;;9.70;99.90;;;;;;5062247;28;19921;-77
2024/03/20 07:51:57;;;;;;;;;;;9.80;99.90;;;;;;5073889;28;19916;-77
2024/03/20 07:54:26;;;;;;;;;;;9.80;99.90;;;;;;5045804;28;19913;-77
2024/03/20 07:56:52;;;;;;;;;;;9.90;99.90;;;;;;5020747;28;19917;-77
2024/03/20 07:59:18;;;;;;;;;;;10.00;99.90;;;;;;5056974;28;19921;-77
2024/03/20 08:01:44;;;;;;;;;;;10.00;99.90;;;;;;5021460;28;19983;-78
2024/03/20 08:04:10;;;;;;;;;;;10.10;99.90;;;;;;5035664;28;19920;-78
2024/03/20 08:06:36;;;;;;;;;;;10.10;99.90;;;;;;5081404;28;19917;-77
2024/03/20 08:09:01;;;;;;;;;;;10.20;99.90;;;;;;5045648;28;19913;-78
2024/03/20 08:11:27;;;;;;;;;;;10.30;99.90;;;;;;5051998;28;19917;-78
2024/03/20 08:13:53;;;;;;;;;;;10.40;99.90;;;;;;5056366;28;19927;-78
2024/03/20 08:16:18;;;;;;;;;;;10.50;99.90;;;;;;5023012;28;20336;-78
2024/03/20 08:18:44;;;;;;;;;;;10.50;99.90;;;;;;5055250;28;19978;-77
2024/03/20 08:21:13;;;;;;;;;;;10.60;99.90;;;;;;5062452;28;19971;-77
2024/03/20 08:23:40;;;;;;;;;;;10.70;99.90;;;;;;5060584;28;20316;-75
2024/03/20 08:26:05;;;;;;;;;;;10.80;99.90;;;;;;5023263;28;19921;-75
2024/03/20 08:28:31;;;;;;;;;;;10.80;99.90;;;;;;5003474;28;19920;-75
2024/03/20 08:30:56;;;;;;;;;;;10.90;99.90;;;;;;5042679;28;19921;-75
2024/03/20 08:33:22;;;;;;;;;;;11.00;99.90;;;;;;5038928;28;19983;-76
2024/03/20 08:35:55;;;;;;;;;;;11.10;99.90;;;;;;5062665;28;20186;-75
2024/03/20 08:38:20;;;;;;;;;;;11.20;99.90;;;;;;5032807;28;19929;-75
2024/03/20 08:40:46;;;;;;;;;;;11.20;99.90;;;;;;5052288;28;19917;-76
2024/03/20 08:43:13;;;;;;;;;;;11.30;99.90;;;;;;5045118;28;19921;-77
2024/03/20 08:45:38;;;;;;;;;;;11.50;99.90;;;;;;5076824;28;19920;-78
2024/03/20 08:48:04;;;;;;;;;;;11.60;99.90;;;;;;5059483;28;20115;-78
2024/03/20 08:50:30;;;;;;;;;;;11.60;99.90;;;;;;5074666;28;19928;-77
2024/03/20 08:52:55;;;;;;;;;;;11.70;99.90;;;;;;5051480;28;19917;-78
2024/03/20 08:55:21;;;;;;;;;;;11.70;99.90;;;;;;5018604;28;19920;-77
2024/03/20 08:57:46;;;;;;;;;;;11.80;99.90;;;;;;5018052;28;19927;-77
2024/03/20 09:00:12;;;;;;;;;;;11.90;99.90;;;;;;5051396;28;19952;-77
2024/03/20 09:02:38;;;;;;;;;;;11.90;99.90;;;;;;5090919;28;19988;-78
2024/03/20 09:05:04;;;;;;;;;;;12.00;99.90;;;;;;5068891;28;19948;-78
2024/03/20 09:07:29;;;;;;;;;;;12.00;99.90;;;;;;5028516;28;20269;-77
2024/03/20 09:09:55;;;;;;;;;;;12.10;99.90;;;;;;5038252;28;20286;-78
2024/03/20 09:12:21;;;;;;;;;;;12.10;99.90;;;;;;5007402;28;19924;-77
2024/03/20 09:14:46;;;;;;;;;;;12.20;99.90;;;;;;5051287;28;20323;-77
2024/03/20 09:17:12;;;;;;;;;;;12.30;99.90;;;;;;5022254;28;19921;-77
2024/03/20 09:19:38;;;;;;;;;;;12.40;99.90;;;;;;5038135;28;19921;-77
2024/03/20 09:22:04;;;;;;;;;;;12.50;99.90;;;;;;5041573;28;19921;-78
2024/03/20 09:24:29;;;;;;;;;;;12.50;99.90;;;;;;5086247;28;19917;-78
2024/03/20 09:26:55;;;;;;;;;;;12.70;99.90;;;;;;5057165;28;19928;-77
2024/03/20 09:29:21;;;;;;;;;;;12.70;99.90;;;;;;5019618;28;20281;-77
2024/03/20 09:31:48;;;;;;;;;;;12.70;99.90;;;;;;5061913;28;19918;-78
2024/03/20 09:34:14;;;;;;;;;;;12.80;99.90;;;;;;5028685;28;19967;-77
2024/03/20 09:36:39;;;;;;;;;;;12.80;99.90;;;;;;5059890;28;19927;-77
2024/03/20 09:39:05;;;;;;;;;;;12.90;99.90;;;;;;5018039;28;19917;-77
2024/03/20 09:41:35;;;;;;;;;;;12.90;99.90;;;;;;5046286;28;19917;-77
2024/03/20 09:44:00;;;;;;;;;;;13.00;99.90;;;;;;5034717;28;20538;-75
2024/03/20 09:46:26;;;;;;;;;;;13.10;99.90;;;;;;5032865;28;19924;-76
2024/03/20 09:48:52;;;;;;;;;;;13.10;99.90;;;;;;5035736;28;19976;-75
2024/03/20 09:51:19;;;;;;;;;;;13.20;99.90;;;;;;4997227;28;19925;-76
2024/03/20 09:53:50;;;;;;;;;;;13.20;99.90;;;;;;5039566;28;20040;-75
2024/03/20 09:56:16;;;;;;;;;;;13.30;99.90;;;;;;5016791;28;19914;-76
2024/03/20 09:58:45;;;;;;;;;;;13.30;99.90;;;;;;5033974;28;19928;-76
2024/03/20 10:01:14;;;;;;;;;;;13.40;99.90;;;;;;5070224;28;20000;-76
2024/03/20 10:03:43;;;;;;;;;;;13.40;99.90;;;;;;5034738;28;19922;-76
2024/03/20 10:06:08;;;;;;;;;;;13.50;99.90;;;;;;5059957;28;20340;-75
2024/03/20 10:08:37;;;;;;;;;;;13.60;99.90;;;;;;5019739;28;20007;-75
2024/03/20 10:11:03;;;;;;;;;;;13.60;99.90;;;;;;5052303;28;20313;-76
2024/03/20 10:13:28;;;;;;;;;;;13.70;99.90;;;;;;5047554;28;19927;-75
2024/03/20 10:16:04;;;;;;;;;;;13.80;99.90;;;;;;5019618;28;19932;-76
2024/03/20 10:18:30;;;;;;;;;;;13.90;99.90;;;;;;5036680;28;19926;-75
2024/03/20 10:20:56;;;;;;;;;;;13.90;99.90;;;;;;5050259;28;19975;-75
2024/03/20 10:23:22;;;;;;;;;;;14.10;99.90;;;;;;5042382;28;19975;-75
2024/03/20 10:25:51;;;;;;;;;;;14.30;99.90;;;;;;5058280;28;20325;-75
2024/03/20 10:28:18;;;;;;;;;;;14.40;99.90;;;;;;5046595;28;19917;-75
2024/03/20 10:30:45;;;;;;;;;;;14.50;99.90;;;;;;5048900;28;20016;-76
2024/03/20 10:33:13;;;;;;;;;;;14.50;99.90;;;;;;5051506;28;20000;-75
2024/03/20 10:35:40;;;;;;;;;;;14.60;99.90;;;;;;5043824;28;19971;-75
2024/03/20 10:38:05;;;;;;;;;;;14.60;99.90;;;;;;5075542;28;20326;-74
2024/03/20 10:40:32;;;;;;;;;;;14.70;99.90;;;;;;5023518;28;20599;-75
2024/03/20 10:42:58;;;;;;;;;;;14.80;99.90;;;;;;5078584;28;19913;-75
2024/03/20 10:45:23;;;;;;;;;;;14.90;99.90;;;;;;5036061;28;20039;-75
2024/03/20 10:47:49;;;;;;;;;;;15.00;99.90;;;;;;5031515;28;20292;-75
2024/03/20 10:50:16;;;;;;;;;;;15.10;99.90;;;;;;5042820;28;20219;-76
2024/03/20 10:52:42;;;;;;;;;;;15.20;99.90;;;;;;5057643;28;19924;-75
2024/03/20 10:55:08;;;;;;;;;;;15.40;99.90;;;;;;5043495;28;19916;-75
2024/03/20 10:57:34;;;;;;;;;;;15.50;99.90;;;;;;5001779;28;19917;-75
2024/03/20 11:00:00;;;;;;;;;;;15.60;99.90;;;;;;5065371;28;19924;-75
2024/03/20 11:02:26;;;;;;;;;;;15.70;99.90;;;;;;5053587;28;19987;-75
2024/03/20 11:04:51;;;;;;;;;;;15.80;99.90;;;;;;5054103;28;19921;-75
2024/03/20 11:07:29;;;;;;;;;;;15.80;99.90;;;;;;5012980;28;19928;-75
2024/03/20 11:09:55;;;;;;;;;;;15.70;99.90;;;;;;5044377;28;20002;-75
2024/03/20 11:12:35;;;;;;;;;;;15.60;99.90;;;;;;5052731;28;19929;-75
2024/03/20 11:15:01;;;;;;;;;;;15.70;99.90;;;;;;5039638;28;19920;-75
2024/03/20 11:17:26;;;;;;;;;;;15.80;99.90;;;;;;5045311;28;20517;-74
2024/03/20 11:19:52;;;;;;;;;;;16.00;99.90;;;;;;5038078;28;19912;-75
2024/03/20 11:22:21;;;;;;;;;;;16.30;99.90;;;;;;5036338;28;20284;-74
2024/03/20 11:24:47;;;;;;;;;;;16.50;99.90;;;;;;5006415;28;20066;-76
2024/03/20 11:27:13;;;;;;;;;;;16.70;99.90;;;;;;5063251;28;19975;-76
2024/03/20 11:29:39;;;;;;;;;;;16.90;99.90;;;;;;5017611;28;19964;-75
2024/03/20 11:32:04;;;;;;;;;;;17.10;99.90;;;;;;5068960;28;19928;-78
2024/03/20 11:34:32;;;;;;;;;;;17.20;99.90;;;;;;5016811;28;19928;-78
2024/03/20 11:36:58;;;;;;;;;;;17.30;99.90;;;;;;5063570;28;19923;-78
2024/03/20 11:39:25;;;;;;;;;;;17.50;99.90;;;;;;5059740;28;20000;-79
2024/03/20 11:41:52;;;;;;;;;;;17.60;99.90;;;;;;5056078;28;19913;-79
2024/03/20 11:44:17;;;;;;;;;;;17.80;99.90;;;;;;5067925;28;20338;-78
2024/03/20 11:46:43;;;;;;;;;;;17.90;99.90;;;;;;5061294;28;19923;-78
2024/03/20 11:49:09;;;;;;;;;;;17.70;99.90;;;;;;5004445;28;19924;-76
2024/03/20 11:51:38;;;;;;;;;;;18.00;99.90;;;;;;5005918;28;19917;-78
2024/03/20 11:54:04;;;;;;;;;;;18.10;99.90;;;;;;5073597;28;19917;-79
2024/03/20 11:56:29;;;;;;;;;;;18.20;99.50;;;;;;5063882;28;20345;-78
2024/03/20 11:58:55;;;;;;;;;;;18.20;99.10;;;;;;5051716;28;19952;-78
2024/03/20 12:01:21;;;;;;;;;;;18.30;99.20;;;;;;5034489;28;19925;-78
2024/03/20 12:03:49;;;;;;;;;;;18.30;98.00;;;;;;5039317;28;19921;-78
2024/03/20 12:06:16;;;;;;;;;;;18.40;98.90;;;;;;5044395;28;19917;-78
2024/03/20 12:08:42;;;;;;;;;;;18.50;97.90;;;;;;5016668;28;20318;-77
2024/03/20 12:11:28;;;;;;;;;;;18.50;97.10;;;;;;5032539;28;19929;-78
2024/03/20 12:13:54;;;;;;;;;;;18.60;97.30;;;;;;5039538;28;19968;-78
2024/03/20 12:16:22;;;;;;;;;;;18.50;96.70;;;;;;5035003;28;20375;-77
2024/03/20 12:18:48;;;;;;;;;;;18.50;96.30;;;;;;5042368;28;19913;-78
2024/03/20 12:21:15;;;;;;;;;;;18.60;96.40;;;;;;5018479;28;19913;-78
2024/03/20 12:23:41;;;;;;;;;;;18.60;96.00;;;;;;5051433;28;20237;-78
2024/03/20 12:26:09;;;;;;;;;;;18.70;95.70;;;;;;5007832;28;19920;-76
2024/03/20 12:28:35;;;;;;;;;;;18.70;94.80;;;;;;5003515;28;19921;-77
2024/03/20 12:31:01;;;;;;;;;;;18.80;95.40;;;;;;5021568;28;20378;-79
2024/03/20 12:33:26;;;;;;;;;;;18.70;94.60;;;;;;5045327;28;19924;-77
2024/03/20 12:35:54;;;;;;;;;;;18.80;95.20;;;;;;5003450;28;19920;-77
2024/03/20 12:38:20;;;;;;;;;;;18.80;95.60;;;;;;5018630;28;19917;-77
2024/03/20 12:40:46;;;;;;;;;;;18.80;94.40;;;;;;5032840;28;19917;-79
2024/03/20 12:43:14;;;;;;;;;;;18.90;95.00;;;;;;5034714;28;19925;-77
2024/03/20 12:45:40;;;;;;;;;;;19.10;95.20;;;;;;5048843;28;20076;-77
2024/03/20 12:48:09;;;;;;;;;;;19.00;93.90;;;;;;5032835;28;20670;-77
2024/03/20 12:50:35;;;;;;;;;;;19.00;94.40;;;;;;5075899;28;19925;-77
2024/03/20 12:53:01;;;;;;;;;;;19.00;94.50;;;;;;5040784;28;19915;-77
2024/03/20 12:55:27;;;;;;;;;;;18.80;94.80;;;;;;5067635;28;19923;-77
2024/03/20 12:57:54;;;;;;;;;;;18.60;94.30;;;;;;5000467;28;19979;-79
2024/03/20 13:00:23;;;;;;;;;;;18.60;95.20;;;;;;5050998;28;20008;-77
2024/03/20 13:02:49;;;;;;;;;;;18.50;95.20;;;;;;5051796;28;20011;-77
2024/03/20 13:05:17;;;;;;;;;;;18.60;94.50;;;;;;5054807;28;19951;-78
2024/03/20 13:07:43;;;;;;;;;;;18.60;93.90;;;;;;5039368;28;19913;-77
2024/03/20 13:10:09;;;;;;;;;;;18.50;94.80;;;;;;5042404;28;19917;-76
2024/03/20 13:12:36;;;;;;;;;;;18.60;95.20;;;;;;5032816;28;20418;-77
2024/03/20 13:15:05;;;;;;;;;;;18.70;95.40;;;;;;5077525;28;20250;-77
2024/03/20 13:17:32;;;;;;;;;;;18.70;95.30;;;;;;5041769;28;19967;-77
2024/03/20 13:20:00;;;;;;;;;;;18.70;94.70;;;;;;5034320;28;19928;-77
2024/03/20 13:22:26;;;;;;;;;;;18.70;95.00;;;;;;5002430;28;19913;-78
2024/03/20 13:24:52;;;;;;;;;;;18.80;94.80;;;;;;5054612;28;19932;-77
2024/03/20 13:27:18;;;;;;;;;;;19.00;94.20;;;;;;5002259;28;19917;-78
2024/03/20 13:29:47;;;;;;;;;;;18.90;93.50;;;;;;5018400;28;19912;-77
2024/03/20 13:32:18;;;;;;;;;;;19.20;93.50;;;;;;5066625;28;19917;-76
2024/03/20 13:34:51;;;;;;;;;;;19.20;93.50;;;;;;5054492;28;20321;-77
2024/03/20 13:37:18;;;;;;;;;;;19.40;93.50;;;;;;5067718;28;19970;-79
2024/03/20 13:39:44;;;;;;;;;;;19.60;93.60;;;;;;5022470;28;19917;-77
2024/03/20 13:42:19;;;;;;;;;;;19.60;93.20;;;;;;5014271;28;20200;-78
2024/03/20 13:44:45;;;;;;;;;;;19.60;93.20;;;;;;5031885;28;19927;-79
2024/03/20 13:47:11;;;;;;;;;;;19.80;93.70;;;;;;5058072;28;20007;-78
2024/03/20 13:49:37;;;;;;;;;;;19.90;93.60;;;;;;5022247;28;19913;-80
2024/03/20 13:52:04;;;;;;;;;;;20.00;93.00;;;;;;5045102;28;20230;-76
2024/03/20 13:54:30;;;;;;;;;;;19.70;93.00;;;;;;5019112;28;20569;-76
2024/03/20 13:56:55;;;;;;;;;;;19.50;93.90;;;;;;5000320;28;19914;-76
2024/03/20 13:59:22;;;;;;;;;;;19.60;93.40;;;;;;5066622;28;19913;-77
2024/03/20 14:01:48;;;;;;;;;;;19.60;93.40;;;;;;5071985;28;19928;-76
2024/03/20 14:04:14;;;;;;;;;;;19.40;93.70;;;;;;5087209;28;19916;-76
2024/03/20 14:06:40;;;;;;;;;;;19.40;94.10;;;;;;5063275;28;19916;-76
2024/03/20 14:09:09;;;;;;;;;;;19.20;94.20;;;;;;5068910;28;19920;-76
2024/03/20 14:11:34;;;;;;;;;;;19.30;94.00;;;;;;5066407;28;19913;-80
2024/03/20 14:14:00;;;;;;;;;;;19.30;94.10;;;;;;5053052;28;19920;-78
2024/03/20 14:16:26;;;;;;;;;;;19.20;94.20;;;;;;5019909;28;19917;-81
2024/03/20 14:18:52;;;;;;;;;;;19.30;94.50;;;;;;5004467;28;19917;-79